Seago Piraeus — OXVD2 — position and weather

sailwx.info

Track history (hours):
 
Tides and Currents Weather Stations Pressure Air Temp Water Temp Dewpoint Dewpoint Depression Visibility Wind Speed Wind Dir Waves Ship Positions

Seago Piraeus

Last reported at 2015-Mar-26 09:30 UTC. Time now 2015-Mar-26 19:12 UTC.
Position N 37°09' W 001°11'.

Length 294 m; draft 12.7 m.

Type: Ship (hazmat cat A). MMSI: 219117000.

Date/timePositionNaut miles runAvg speedWind from/ knotsBaromVisibWave heightAir tempDewpointWater temp
2015-Mar-26 09:30N 37°09' W 001°11'1616.5
2015-Mar-26 08:33N 37°20' W 000°56'1717.1
2015-Mar-26 07:33N 37°30' W 000°39'1716.9
2015-Mar-26 06:33N 37°43' W 000°25'1716.9
2015-Mar-26 05:33N 37°57' W 000°14'8414.0
2015-Mar-25 23:33N 39°22' W 000°12'7 6.8
2015-Mar-25 22:33N 39°26' W 000°19'0 0.0
2015-Mar-25 21:31N 39°26' W 000°19'0 0.0
2015-Mar-25 20:31N 39°26' W 000°19'0 0.0
2015-Mar-25 19:25N 39°26' W 000°19'0 0.0
2015-Mar-25 18:31N 39°26' W 000°19'0 0.0
2015-Mar-25 17:31N 39°26' W 000°19'0 0.0
2015-Mar-25 16:31N 39°26' W 000°19'0 0.0
2015-Mar-25 15:31N 39°26' W 000°19'0 0.0
2015-Mar-25 14:31N 39°26' W 000°19'0 0.0
2015-Mar-25 13:31N 39°26' W 000°19'0 0.0
2015-Mar-25 12:31N 39°26' W 000°19'0 0.0
2015-Mar-25 11:13N 39°26' W 000°19'0 0.0
2015-Mar-25 10:25N 39°26' W 000°19'0 0.0
2015-Mar-25 09:31N 39°26' W 000°19'0 0.0
2015-Mar-25 08:25N 39°26' W 000°19'0 0.0
2015-Mar-25 07:31N 39°26' W 000°19'0 0.3
2015-Mar-25 06:34N 39°26' W 000°19'3 2.8
2015-Mar-25 05:33N 39°25' W 000°16'8 7.7
2015-Mar-25 04:33N 39°24' W 000°06'5814.4
2015-Mar-25 00:32N 39°15' E 001°08'1616.0
2015-Mar-24 23:33N 39°13' E 001°28'1616.2
2015-Mar-24 22:33N 39°11' E 001°49'1716.5
2015-Mar-24 21:33N 39°07' E 002°10'1616.2
2015-Mar-24 20:33N 39°03' E 002°30'1716.5
2015-Mar-24 19:33N 38°59' E 002°51'1716.6
2015-Mar-24 18:33N 38°55' E 003°11'1716.8
2015-Mar-24 17:33N 38°51' E 003°32'1717.2
2015-Mar-24 16:33N 38°47' E 003°54'2316.9
2015-Mar-24 15:10N 38°41' E 004°23'34617.6
2015-Mar-23 19:28N 37°20' E 011°29'2518.1
2015-Mar-23 18:06N 37°09' E 011°57'2818.0
2015-Mar-23 16:33N 37°01' E 012°30'5317.4
2015-Mar-23 13:32N 36°46' E 013°34'1616.9
2015-Mar-23 12:33N 36°40' E 013°53'1717.0
2015-Mar-23 11:33N 36°35' E 014°13'1717.4
2015-Mar-23 10:33N 36°31' E 014°34'1711.1
2015-Mar-23 09:00N 36°24' E 014°54'44316.5 290 / 251013.4 5.4 1.516.911.414.0
2015-Mar-22 06:10N 37°28' E 024°03'  
2015-Mar-17 20:12N 40°45' E 029°14'5 7.4
2015-Mar-17 19:33N 40°45' E 029°21'1010.4
2015-Mar-17 18:32N 40°45' E 029°34'6 5.7
2015-Mar-17 17:25N 40°46' E 029°43'0 0.0
2015-Mar-17 11:03N 40°46' E 029°43'0 0.0
2015-Mar-17 10:33N 40°46' E 029°43'0 0.0
2015-Mar-17 09:15N 40°46' E 029°43'0 0.0
2015-Mar-17 08:27N 40°46' E 029°43'0 0.0
2015-Mar-16 19:15N 40°46' E 029°43'0 0.1
2015-Mar-16 18:25N 40°46' E 029°43'7 8.2
2015-Mar-16 17:33N 40°45' E 029°34'10 9.7
2015-Mar-16 16:33N 40°43' E 029°21'1514.7
2015-Mar-16 15:33N 40°43' E 029°02'2218.3
2015-Mar-16 14:22N 40°44' E 028°33'  
Track history (hours):
 
Tides and Currents Weather Stations Pressure Air Temp Water Temp Dewpoint Dewpoint Depression Visibility Wind Speed Wind Dir Waves Ship Positions

Seago Piraeus

Last reported at 2015-Mar-26 09:30 UTC. Time now 2015-Mar-26 19:12 UTC.
Position N 37°09' W 001°11'.

Length 294 m; draft 12.7 m.

Type: Ship (hazmat cat A). MMSI: 219117000.

Date/timePositionNaut miles runAvg speedWind from/ knotsBaromVisibWave heightAir tempDewpointWater temp
2015-Mar-26 09:30N 37°09' W 001°11'1616.5
2015-Mar-26 08:33N 37°20' W 000°56'1717.1
2015-Mar-26 07:33N 37°30' W 000°39'1716.9
2015-Mar-26 06:33N 37°43' W 000°25'1716.9
2015-Mar-26 05:33N 37°57' W 000°14'8414.0
2015-Mar-25 23:33N 39°22' W 000°12'7 6.8
2015-Mar-25 22:33N 39°26' W 000°19'0 0.0
2015-Mar-25 21:31N 39°26' W 000°19'0 0.0
2015-Mar-25 20:31N 39°26' W 000°19'0 0.0
2015-Mar-25 19:25N 39°26' W 000°19'0 0.0
2015-Mar-25 18:31N 39°26' W 000°19'0 0.0
2015-Mar-25 17:31N 39°26' W 000°19'0 0.0
2015-Mar-25 16:31N 39°26' W 000°19'0 0.0
2015-Mar-25 15:31N 39°26' W 000°19'0 0.0
2015-Mar-25 14:31N 39°26' W 000°19'0 0.0
2015-Mar-25 13:31N 39°26' W 000°19'0 0.0
2015-Mar-25 12:31N 39°26' W 000°19'0 0.0
2015-Mar-25 11:13N 39°26' W 000°19'0 0.0
2015-Mar-25 10:25N 39°26' W 000°19'0 0.0
2015-Mar-25 09:31N 39°26' W 000°19'0 0.0
2015-Mar-25 08:25N 39°26' W 000°19'0 0.0
2015-Mar-25 07:31N 39°26' W 000°19'0 0.3
2015-Mar-25 06:34N 39°26' W 000°19'3 2.8
2015-Mar-25 05:33N 39°25' W 000°16'8 7.7
2015-Mar-25 04:33N 39°24' W 000°06'5814.4
2015-Mar-25 00:32N 39°15' E 001°08'1616.0
2015-Mar-24 23:33N 39°13' E 001°28'1616.2
2015-Mar-24 22:33N 39°11' E 001°49'1716.5
2015-Mar-24 21:33N 39°07' E 002°10'1616.2
2015-Mar-24 20:33N 39°03' E 002°30'1716.5
2015-Mar-24 19:33N 38°59' E 002°51'1716.6
2015-Mar-24 18:33N 38°55' E 003°11'1716.8
2015-Mar-24 17:33N 38°51' E 003°32'1717.2
2015-Mar-24 16:33N 38°47' E 003°54'2316.9
2015-Mar-24 15:10N 38°41' E 004°23'34617.6
2015-Mar-23 19:28N 37°20' E 011°29'2518.1
2015-Mar-23 18:06N 37°09' E 011°57'2818.0
2015-Mar-23 16:33N 37°01' E 012°30'5317.4
2015-Mar-23 13:32N 36°46' E 013°34'1616.9
2015-Mar-23 12:33N 36°40' E 013°53'1717.0
2015-Mar-23 11:33N 36°35' E 014°13'1717.4
2015-Mar-23 10:33N 36°31' E 014°34'1711.1
2015-Mar-23 09:00N 36°24' E 014°54'44316.5 290 / 251013.4 5.4 1.516.911.414.0
2015-Mar-22 06:10N 37°28' E 024°03'  
2015-Mar-17 20:12N 40°45' E 029°14'5 7.4
2015-Mar-17 19:33N 40°45' E 029°21'1010.4
2015-Mar-17 18:32N 40°45' E 029°34'6 5.7
2015-Mar-17 17:25N 40°46' E 029°43'0 0.0
2015-Mar-17 11:03N 40°46' E 029°43'0 0.0
2015-Mar-17 10:33N 40°46' E 029°43'0 0.0
2015-Mar-17 09:15N 40°46' E 029°43'0 0.0
2015-Mar-17 08:27N 40°46' E 029°43'0 0.0
2015-Mar-16 19:15N 40°46' E 029°43'0 0.1
2015-Mar-16 18:25N 40°46' E 029°43'7 8.2
2015-Mar-16 17:33N 40°45' E 029°34'10 9.7
2015-Mar-16 16:33N 40°43' E 029°21'1514.7
2015-Mar-16 15:33N 40°43' E 029°02'2218.3
2015-Mar-16 14:22N 40°44' E 028°33'  

Dump ship's entire track history